Weather at Rand Airport

Public forecast

Using degrees Celsius for public forecast. Weather courtesy of forecast.io.

Current aviation weather report (METAR) for Rand Airport

Report is more than 6 hours old.

2022/11/14 13:00 (retrieved 2 years ago)

FAGM 141300Z 05007KT CAVOK 21/08 Q1025

Closest aviation forecast (TAF) to Rand Airport

Forecast is more than 12 hours old.

Closest forecast is OR Tambo International Airport, 8.0 nm (14.9 km) NE.

2023/02/22 18:00 (retrieved 1 year ago)

TAF FAOR 221600Z 2218/2324 VRB03KT CAVOK TX24/2313Z TN13/2303Z PROB30 TEMPO 2302/2305 5000 BR BKN008 FM230600 VRB03KT 9999 SCT016 FM230800 VRB03KT CAVOK